Time;durP1;ratioP1;P1;durP2;ratioP2;P2;SDS_P1;SDS_P2;PMS_P1;PMS_P2;Temp;Humidity;BMP_temperature;BMP_pressure;BME280_temperature;BME280_humidity;BME280_pressure;Samples;Min_cycle;Max_cycle;Signal;HPM_P1;HPM_P2
2022/09/24 00:01:15;;;;;;;1.20;0.60;;;;;;;20.71;52.32;101238.28;16136745;19;133917;-43
2022/09/24 00:06:41;;;;;;;2.15;0.70;;;;;;;20.72;52.61;101239.13;16137489;19;129596;-46
2022/09/24 00:12:03;;;;;;;;;;;;;;;20.70;52.78;101235.75;16136772;19;129810;-43
2022/09/24 00:17:24;;;;;;;1.40;0.80;;;;;;;20.75;52.57;101241.41;16134909;19;129761;-44
2022/09/24 00:22:46;;;;;;;1.35;0.80;;;;;;;20.74;52.58;101234.16;16133876;19;130208;-44
2022/09/24 00:28:08;;;;;;;1.27;0.80;;;;;;;20.75;52.15;101224.72;16132073;19;130522;-42
2022/09/24 00:33:32;;;;;;;0.93;0.70;;;;;;;20.75;52.25;101222.78;16134498;19;130517;-45
2022/09/24 00:38:56;;;;;;;0.95;0.80;;;;;;;20.75;51.70;101222.78;16135099;19;130135;-44
2022/09/24 00:44:40;;;;;;;1.90;0.83;;;;;;;20.74;52.02;101215.50;16133109;19;129971;-44
2022/09/24 00:50:05;;;;;;;1.42;0.68;;;;;;;20.72;52.08;101211.31;16134573;19;130741;-45
2022/09/24 00:55:27;;;;;;;0.73;0.68;;;;;;;20.68;51.93;101204.56;16132362;19;129561;-48
2022/09/24 01:00:57;;;;;;;1.15;0.75;;;;;;;20.67;52.07;101194.56;16134480;19;129812;-46
2022/09/24 01:06:19;;;;;;;1.23;0.70;;;;;;;20.62;52.47;101195.31;16134607;19;129865;-44
2022/09/24 01:11:48;;;;;;;0.68;0.52;;;;;;;20.60;52.30;101191.97;16132997;19;130007;-45
2022/09/24 01:17:16;;;;;;;1.40;0.82;;;;;;;20.57;52.61;101182.16;16132317;19;129505;-45
2022/09/24 01:22:59;;;;;;;0.90;0.75;;;;;;;20.54;52.42;101188.25;16130790;19;129627;-43
2022/09/24 01:28:43;;;;;;;1.55;0.88;;;;;;;20.52;52.86;101187.66;16127044;19;129356;-44
2022/09/24 01:34:07;;;;;;;1.15;0.90;;;;;;;20.49;52.44;101185.38;16131413;19;129589;-49
2022/09/24 01:39:31;;;;;;;1.92;0.98;;;;;;;20.47;52.63;101176.44;16131088;19;128923;-44
2022/09/24 01:44:54;;;;;;;1.52;0.82;;;;;;;20.45;52.56;101171.16;16132671;19;129885;-43
2022/09/24 01:50:18;;;;;;;1.05;0.95;;;;;;;20.43;52.65;101169.72;16129170;19;130362;-49
2022/09/24 01:55:44;;;;;;;1.10;1.00;;;;;;;20.42;52.63;101166.09;16129467;19;129522;-44
2022/09/24 02:01:12;;;;;;;1.90;0.82;;;;;;;20.42;52.82;101159.72;16128766;19;129569;-42
2022/09/24 02:06:40;;;;;;;1.05;1.00;;;;;;;20.41;52.43;101155.25;16129257;19;131185;-47
2022/09/24 02:12:10;;;;;;;1.65;1.30;;;;;;;20.39;52.56;101149.91;16127415;19;131466;-44
2022/09/24 02:17:35;;;;;;;3.55;1.08;;;;;;;20.38;52.54;101150.19;16130578;19;130472;-46
2022/09/24 02:22:58;;;;;;;1.48;1.20;;;;;;;20.36;52.33;101147.66;16126302;19;129075;-45
2022/09/24 02:28:20;;;;;;;1.67;1.05;;;;;;;20.36;52.83;101146.81;16125412;19;130424;-45
2022/09/24 02:39:26;;;;;;;1.65;1.10;;;;;;;20.34;52.64;101140.66;16126878;19;130647;-45
2022/09/24 02:44:48;;;;;;;1.42;1.05;;;;;;;20.32;52.59;101137.28;16125220;19;129575;-45
2022/09/24 02:50:09;;;;;;;2.15;1.48;;;;;;;20.29;52.33;101133.94;16124951;19;129325;-47
2022/09/24 02:55:31;;;;;;;1.65;1.13;;;;;;;20.31;52.61;101135.63;16125476;19;129611;-45
2022/09/24 03:00:56;;;;;;;1.40;1.30;;;;;;;20.28;52.16;101132.25;16123437;19;129426;-47
2022/09/24 03:06:17;;;;;;;1.50;1.40;;;;;;;20.28;52.32;101123.06;16123925;19;129392;-44
2022/09/24 03:11:39;;;;;;;1.73;1.27;;;;;;;20.26;52.55;101126.09;16128378;19;130024;-47
2022/09/24 03:17:02;;;;;;;2.05;1.50;;;;;;;20.26;52.44;101115.00;16140144;19;129372;-45
2022/09/24 03:22:23;;;;;;;1.67;1.55;;;;;;;20.24;52.12;101117.19;16153519;19;130442;-45
2022/09/24 03:27:45;;;;;;;2.47;1.40;;;;;;;20.24;52.58;101106.06;16156829;19;129790;-47
2022/09/24 03:33:07;;;;;;;1.67;1.50;;;;;;;20.23;52.08;101103.56;16153281;19;131016;-46
2022/09/24 03:38:29;;;;;;;1.35;1.25;;;;;;;20.22;51.96;101093.53;16155728;19;130710;-44
2022/09/24 03:43:51;;;;;;;1.98;1.50;;;;;;;20.21;51.97;101092.69;16156280;19;129649;-46
2022/09/24 03:49:13;;;;;;;1.45;1.35;;;;;;;20.20;52.12;101093.75;16153447;19;129354;-46
2022/09/24 03:54:35;;;;;;;1.85;1.55;;;;;;;20.20;52.33;101099.31;16154512;19;130421;-44
2022/09/24 04:00:00;;;;;;;2.33;1.70;;;;;;;20.19;52.29;101092.09;16150973;19;129206;-47
2022/09/24 04:05:21;;;;;;;1.27;1.17;;;;;;;20.18;51.90;101084.00;16151657;19;130269;-45
2022/09/24 04:10:47;;;;;;;2.10;1.50;;;;;;;20.18;52.26;101079.31;16150944;19;129382;-45
2022/09/24 04:16:09;;;;;;;2.10;1.60;;;;;;;20.17;52.07;101077.63;16150012;19;129619;-44
2022/09/24 04:21:31;;;;;;;1.83;1.42;;;;;;;20.16;52.06;101069.53;16152869;19;130168;-47
2022/09/24 04:26:52;;;;;;;3.33;1.60;;;;;;;20.16;52.01;101062.06;16146853;19;129117;-45
2022/09/24 04:32:14;;;;;;;3.10;1.70;;;;;;;20.16;52.40;101073.16;16134978;19;129680;-47
2022/09/24 04:37:36;;;;;;;1.75;1.50;;;;;;;20.14;51.54;101065.06;16133098;19;130054;-48
2022/09/24 04:42:58;;;;;;;1.88;1.60;;;;;;;20.13;52.09;101065.34;16135149;19;129505;-44
2022/09/24 04:48:20;;;;;;;2.13;1.65;;;;;;;20.12;51.71;101061.69;16134661;19;130749;-47
2022/09/24 04:53:42;;;;;;;1.73;1.45;;;;;;;20.13;52.10;101062.56;16133912;19;128774;-46
2022/09/24 04:59:03;;;;;;;2.55;1.38;;;;;;;20.12;51.97;101063.66;16133536;19;129311;-46
2022/09/24 05:04:25;;;;;;;1.25;1.15;;;;;;;20.11;52.17;101065.59;16133607;19;129572;-44
2022/09/24 05:09:47;;;;;;;1.52;1.40;;;;;;;20.11;51.79;101073.06;16133024;19;129747;-45
2022/09/24 05:15:09;;;;;;;1.70;1.52;;;;;;;20.10;51.98;101065.84;16134716;19;129599;-45
2022/09/24 05:20:31;;;;;;;1.58;1.48;;;;;;;20.10;51.87;101076.94;16135083;19;129988;-46
2022/09/24 05:31:33;;;;;;;1.50;1.40;;;;;;;20.08;51.57;101068.88;16136790;19;129434;-47
2022/09/24 05:36:55;;;;;;;1.58;1.33;;;;;;;20.08;51.92;101070.78;16131790;19;129398;-46
2022/09/24 05:42:16;;;;;;;1.55;1.27;;;;;;;20.09;51.73;101075.25;16129045;19;129806;-52
2022/09/24 05:47:38;;;;;;;1.65;1.30;;;;;;;20.08;52.29;101068.88;16127882;19;129971;-47
2022/09/24 05:53:01;;;;;;;1.40;1.30;;;;;;;20.11;51.95;101073.06;16126274;19;129428;-50
2022/09/24 05:58:23;;;;;;;1.30;1.20;;;;;;;20.17;52.21;101076.78;16126710;19;128903;-45
2022/09/24 06:03:45;;;;;;;1.30;1.20;;;;;;;20.22;52.04;101076.88;16127400;19;129434;-47
2022/09/24 06:09:08;;;;;;;1.63;1.27;;;;;;;20.26;51.87;101072.47;16125250;19;129309;-48
2022/09/24 06:14:30;;;;;;;1.40;1.20;;;;;;;20.27;51.73;101080.56;16128108;19;134805;-46
2022/09/24 06:19:52;;;;;;;1.50;1.40;;;;;;;20.27;52.13;101076.94;16127836;19;129861;-45
2022/09/24 06:25:14;;;;;;;1.58;1.48;;;;;;;20.26;51.85;101084.44;16127739;19;129405;-44
2022/09/24 06:30:37;;;;;;;1.58;1.40;;;;;;;20.25;52.12;101093.88;16125958;19;131034;-45
2022/09/24 06:36:01;;;;;;;1.35;1.25;;;;;;;20.23;51.89;101084.09;16125672;19;129573;-46
2022/09/24 06:41:23;;;;;;;1.80;1.25;;;;;;;20.23;51.66;101086.88;16123516;19;129648;-48
2022/09/24 06:46:44;;;;;;;1.48;1.17;;;;;;;20.21;51.60;101084.34;16127964;19;129611;-46
2022/09/24 06:52:06;;;;;;;1.63;1.10;;;;;;;20.21;51.48;101086.28;16122304;19;129770;-48
2022/09/24 06:57:28;;;;;;;2.10;1.48;;;;;;;20.21;51.88;101091.84;16130025;19;129921;-45
2022/09/24 07:02:50;;;;;;;1.75;1.10;;;;;;;20.21;51.61;101103.78;16122831;19;129860;-46
2022/09/24 07:08:12;;;;;;;1.80;1.20;;;;;;;20.20;51.47;101104.88;16124032;19;130336;-47
2022/09/24 07:13:34;;;;;;;1.58;1.20;;;;;;;20.20;51.38;101116.00;16122569;19;131028;-46
2022/09/24 07:18:56;;;;;;;1.58;1.13;;;;;;;20.19;51.41;101119.03;16122929;19;131161;-46
2022/09/24 07:24:18;;;;;;;1.35;1.00;;;;;;;20.18;51.55;101123.75;16123439;19;130558;-46
2022/09/24 07:29:39;;;;;;;2.17;1.73;;;;;;;20.17;51.54;101126.78;16123838;19;129373;-49
2022/09/24 07:35:01;;;;;;;3.55;1.60;;;;;;;20.13;51.36;101120.88;16121549;19;129297;-46
2022/09/24 07:40:23;;;;;;;3.15;1.55;;;;;;;20.11;51.43;101129.47;16120157;19;129415;-45
2022/09/24 07:45:45;;;;;;;2.00;1.50;;;;;;;20.12;51.53;101135.88;16119394;19;129843;-49
2022/09/24 07:51:10;;;;;;;4.30;2.58;;;;;;;20.10;50.46;101129.72;16120035;19;129790;-45
2022/09/24 07:56:32;;;;;;;3.38;2.58;;;;;;;20.08;51.08;101134.66;16123775;19;130079;-50
2022/09/24 08:01:54;;;;;;;6.22;2.63;;;;;;;20.06;51.07;101136.88;16114262;19;129558;-47
2022/09/24 08:07:15;;;;;;;6.30;3.10;;;;;;;20.06;50.76;101131.31;16133879;19;133832;-46
2022/09/24 08:12:37;;;;;;;10.93;2.97;;;;;;;20.09;51.16;101142.78;16134423;19;129631;-47
2022/09/24 08:18:03;;;;;;;9.57;2.40;;;;;;;20.12;50.85;101141.41;16131366;19;129681;-46
2022/09/24 08:23:25;;;;;;;5.30;2.58;;;;;;;20.12;51.21;101147.81;16133657;19;129443;-46
2022/09/24 08:28:48;;;;;;;9.02;2.45;;;;;;;20.15;50.90;101152.03;16134274;19;129760;-47
2022/09/24 08:34:09;;;;;;;6.88;2.70;;;;;;;20.18;51.06;101148.75;16132784;19;130164;-49
2022/09/24 08:39:32;;;;;;;4.05;2.40;;;;;;;20.20;51.34;101149.31;16132623;19;130271;-49
2022/09/24 08:50:47;;;;;;;7.10;2.88;;;;;;;20.23;51.19;101150.78;16131729;19;129988;-47
2022/09/24 08:56:10;;;;;;;17.98;2.70;;;;;;;20.24;50.94;101152.47;16131555;19;130286;-48
2022/09/24 09:01:52;;;;;;;7.88;2.20;;;;;;;20.27;51.12;101155.56;16133801;19;130234;-48
2022/09/24 09:07:28;;;;;;;28.67;3.67;;;;;;;20.26;50.96;101153.88;16132389;19;129625;-46
2022/09/24 09:12:55;;;;;;;14.60;2.70;;;;;;;20.27;51.33;101160.28;16132899;19;129700;-45
2022/09/24 09:18:30;;;;;;;19.08;2.22;;;;;;;20.27;51.45;101166.69;16132455;19;129369;-48
2022/09/24 09:23:54;;;;;;;20.95;2.55;;;;;;;20.23;51.46;101165.50;16134879;19;130860;-47
2022/09/24 09:29:16;;;;;;;17.25;3.35;;;;;;;20.20;51.53;101148.50;16131824;19;129715;-49
2022/09/24 09:34:43;;;;;;;12.95;2.85;;;;;;;20.19;51.74;101177.38;16134021;19;129016;-48
2022/09/24 09:40:39;;;;;;;25.17;2.90;;;;;;;20.17;51.95;101163.75;16132176;19;130396;-49
2022/09/24 09:46:15;;;;;;;24.90;3.42;;;;;;;20.18;51.68;101167.34;16130005;19;129439;-50
2022/09/24 09:51:41;;;;;;;16.63;4.65;;;;;;;20.23;51.93;101162.72;16126715;19;131224;-48
2022/09/24 09:57:05;;;;;;;15.77;5.17;;;;;;;20.31;51.90;101174.53;16126286;19;130939;-49
2022/09/24 10:02:30;;;;;;;17.95;7.40;;;;;;;20.35;52.43;101184.03;16126833;19;129918;-48
2022/09/24 10:07:52;;;;;;;18.65;7.43;;;;;;;20.38;52.90;101173.25;16127062;19;130186;-46
2022/09/24 10:13:13;;;;;;;21.58;8.88;;;;;;;20.44;53.32;101176.94;16128527;19;129991;-47
2022/09/24 10:18:49;;;;;;;29.80;12.02;;;;;;;20.50;53.68;101175.94;16130005;19;134513;-47
2022/09/24 10:24:15;;;;;;;;;;;;;;;20.50;53.92;101175.94;16120880;19;130450;-45
2022/09/24 10:35:38;;;;;;;27.30;12.85;;;;;;;20.62;53.69;101161.94;16125732;19;129494;-45
2022/09/24 10:41:00;;;;;;;26.05;14.02;;;;;;;20.63;53.82;101160.03;16123575;19;129692;-44
2022/09/24 10:46:58;;;;;;;33.45;18.75;;;;;;;20.66;54.20;101162.31;16121762;19;129965;-43
2022/09/24 10:52:21;;;;;;;29.98;18.42;;;;;;;20.67;53.75;101166.75;16122254;19;131953;-46
2022/09/24 10:58:04;;;;;;;41.70;18.08;;;;;;;20.65;53.66;101171.72;16122237;19;129683;-46
2022/09/24 11:04:05;;;;;;;28.35;16.55;;;;;;;20.61;53.62;101176.97;16121316;19;130611;-45
2022/09/24 11:09:42;;;;;;;41.90;15.65;;;;;;;20.56;53.36;101174.91;16121846;19;129423;-47
2022/09/24 11:15:36;;;;;;;32.50;14.70;;;;;;;20.52;53.43;101179.31;16118545;19;129512;-47
2022/09/24 11:21:13;;;;;;;26.35;12.65;;;;;;;20.51;53.33;101179.56;16120078;19;129512;-46
2022/09/24 11:26:46;;;;;;;27.42;11.65;;;;;;;20.49;53.10;101179.00;16125990;19;131068;-47
2022/09/24 11:32:53;;;;;;;29.85;10.55;;;;;;;20.48;52.65;101188.41;16120071;19;129820;-46
2022/09/24 11:38:28;;;;;;;17.38;8.52;;;;;;;20.47;53.07;101186.75;16126152;19;129655;-48
2022/09/24 11:44:21;;;;;;;18.83;8.07;;;;;;;20.47;52.91;101187.56;16134441;19;129687;-49
2022/09/24 11:50:04;;;;;;;36.42;7.90;;;;;;;20.42;52.85;101191.09;16133726;19;129679;-45
2022/09/24 11:55:37;;;;;;;24.70;7.30;;;;;;;20.42;52.53;101188.31;16135429;19;129728;-45
2022/09/24 12:01:13;;;;;;;24.08;6.55;;;;;;;20.43;52.51;101180.84;16135803;19;131062;-49
2022/09/24 12:07:01;;;;;;;19.02;5.90;;;;;;;20.42;52.76;101180.00;16135010;19;130276;-50
2022/09/24 12:12:36;;;;;;;34.28;6.47;;;;;;;20.43;52.74;101180.84;16134907;19;129973;-45
2022/09/24 12:18:10;;;;;;;22.27;5.68;;;;;;;20.43;52.68;101175.28;16136652;19;129377;-48
2022/09/24 12:23:38;;;;;;;20.17;4.63;;;;;;;20.45;52.23;101167.50;16133107;19;129593;-49
2022/09/24 12:35:48;;;;;;;19.15;4.35;;;;;;;20.47;52.18;101168.09;16127612;19;129701;-44
2022/09/24 12:41:30;;;;;;;18.48;4.57;;;;;;;20.47;52.04;101165.34;16132106;19;129666;-46
2022/09/24 12:46:53;;;;;;;10.38;3.35;;;;;;;20.47;51.92;101162.56;16132132;19;130032;-47
2022/09/24 12:52:24;;;;;;;12.63;3.55;;;;;;;20.49;51.79;101165.94;16129770;19;130502;-47
2022/09/24 12:58:06;;;;;;;14.70;3.42;;;;;;;20.51;52.29;101169.28;16130903;19;129484;-44
2022/09/24 13:03:33;;;;;;;10.23;3.15;;;;;;;20.48;52.50;101169.78;16129820;19;129349;-47
2022/09/24 13:08:55;;;;;;;9.13;2.83;;;;;;;20.48;51.84;101172.56;16131732;19;129313;-49
2022/09/24 13:14:21;;;;;;;9.75;3.22;;;;;;;20.51;52.22;101172.06;16127693;19;130798;-43
2022/09/24 13:19:44;;;;;;;9.73;3.00;;;;;;;20.50;52.22;101167.63;16128146;19;129282;-47
2022/09/24 13:25:06;;;;;;;5.85;2.25;;;;;;;20.50;51.65;101170.38;16131430;19;129243;-46
2022/09/24 13:30:28;;;;;;;12.27;2.70;;;;;;;20.51;52.09;101166.53;16131449;19;129536;-45
2022/09/24 13:36:12;;;;;;;5.30;2.30;;;;;;;20.54;51.92;101170.72;16129663;19;129388;-44
2022/09/24 13:41:40;;;;;;;4.22;1.92;;;;;;;20.52;51.82;101184.88;16129702;19;129281;-43
2022/09/24 13:47:12;;;;;;;9.52;2.92;;;;;;;20.52;52.33;101182.09;16132503;19;129398;-46
2022/09/24 13:52:41;;;;;;;3.67;1.90;;;;;;;20.53;52.06;101181.00;16127631;19;129257;-47
2022/09/24 13:58:03;;;;;;;2.90;1.60;;;;;;;20.52;52.22;101178.47;16126662;19;130329;-44
2022/09/24 14:03:27;;;;;;;4.65;2.03;;;;;;;20.53;52.46;101180.16;16127130;19;130211;-45
2022/09/24 14:08:50;;;;;;;15.10;1.90;;;;;;;20.49;52.83;101179.81;16129478;19;129989;-47
2022/09/24 14:14:18;;;;;;;5.70;1.80;;;;;;;20.50;52.06;101183.44;16126148;19;130074;-44
2022/09/24 14:19:41;;;;;;;9.00;1.95;;;;;;;20.51;52.46;101182.34;16128657;19;129644;-45
2022/09/24 14:25:09;;;;;;;5.93;1.85;;;;;;;20.52;52.46;101182.09;16126586;19;129527;-44
2022/09/24 14:30:36;;;;;;;5.13;1.65;;;;;;;20.51;52.03;101188.75;16128415;19;133767;-50
2022/09/24 14:36:00;;;;;;;7.68;1.77;;;;;;;20.50;52.17;101189.84;16124484;19;129994;-50
2022/09/24 14:41:27;;;;;;;5.57;1.80;;;;;;;20.48;52.43;101186.47;16124846;19;129773;-46
2022/09/24 14:46:52;;;;;;;3.63;1.77;;;;;;;20.44;52.45;101182.50;16123491;19;129536;-45
2022/09/24 14:52:40;;;;;;;7.13;1.90;;;;;;;20.38;53.00;101194.66;16126964;19;131581;-46
2022/09/24 14:58:02;;;;;;;8.63;2.10;;;;;;;20.34;52.64;101196.22;16125877;19;129487;-45
2022/09/24 15:03:46;;;;;;;7.22;2.53;;;;;;;20.31;52.37;101196.75;16123592;19;129381;-46
2022/09/24 15:09:27;;;;;;;4.90;2.17;;;;;;;20.26;52.61;101197.47;16124262;19;129152;-46
2022/09/24 15:14:58;;;;;;;4.88;2.40;;;;;;;20.22;52.51;101199.94;16122413;19;129378;-45
2022/09/24 15:20:20;;;;;;;4.05;2.00;;;;;;;20.19;51.99;101205.97;16125524;19;130242;-47
2022/09/24 15:25:42;;;;;;;5.63;2.10;;;;;;;20.17;52.21;101210.97;16123365;19;129670;-46
2022/09/24 15:31:04;;;;;;;5.13;2.70;;;;;;;20.18;52.08;101211.78;16122728;19;128937;-46
2022/09/24 15:36:26;;;;;;;3.33;2.20;;;;;;;20.15;52.08;101215.91;16123106;19;130133;-46
2022/09/24 15:41:47;;;;;;;4.25;2.00;;;;;;;20.12;51.68;101213.63;16120520;19;129612;-46
2022/09/24 15:47:09;;;;;;;2.78;2.28;;;;;;;20.12;52.02;101202.53;16122980;19;129012;-45
2022/09/24 15:52:32;;;;;;;4.45;2.50;;;;;;;20.11;52.15;101217.50;16121790;19;129660;-48
2022/09/24 15:57:54;;;;;;;3.15;2.35;;;;;;;20.10;52.22;101227.78;16121245;19;130973;-48
2022/09/24 16:03:24;;;;;;;3.72;2.13;;;;;;;20.11;52.36;101226.69;16120539;19;131374;-47
2022/09/24 16:08:46;;;;;;;3.95;2.22;;;;;;;20.08;51.97;101218.00;16120197;19;129596;-46
2022/09/24 16:14:09;;;;;;;4.13;2.35;;;;;;;20.09;52.34;101230.78;16117302;19;130950;-46
2022/09/24 16:19:30;;;;;;;5.40;2.65;;;;;;;20.10;52.69;101233.34;16107476;19;132966;-53
2022/09/24 16:24:53;;;;;;;8.43;3.10;;;;;;;20.11;52.38;101228.59;16127392;19;129503;-48
2022/09/24 16:30:14;;;;;;;5.10;2.70;;;;;;;20.12;52.43;101235.84;16136302;19;129264;-44
2022/09/24 16:35:36;;;;;;;6.32;2.30;;;;;;;20.12;52.75;101247.78;16132498;19;130821;-47
2022/09/24 16:40:59;;;;;;;8.00;3.13;;;;;;;20.12;52.86;101252.53;16133230;19;129144;-46
2022/09/24 16:46:21;;;;;;;5.13;2.63;;;;;;;20.11;52.94;101260.03;16133397;19;129789;-43
2022/09/24 16:51:44;;;;;;;8.85;2.22;;;;;;;20.11;52.75;101268.34;16133778;19;129716;-43
2022/09/24 16:57:05;;;;;;;6.03;3.08;;;;;;;20.11;52.81;101264.72;16134002;19;130655;-43
2022/09/24 17:02:27;;;;;;;7.72;2.70;;;;;;;20.10;52.60;101263.03;16132747;19;130549;-50
2022/09/24 17:07:49;;;;;;;10.77;2.90;;;;;;;20.06;52.86;101270.19;16131756;19;129595;-50
2022/09/24 17:13:11;;;;;;;16.45;3.67;;;;;;;20.06;52.79;101272.97;16128439;19;131318;-50
2022/09/24 17:18:32;;;;;;;6.22;2.47;;;;;;;20.05;53.13;101286.00;16127136;19;130408;-53
2022/09/24 17:23:54;;;;;;;6.35;1.88;;;;;;;20.07;53.23;101288.50;16127429;19;129635;-53
2022/09/24 17:29:19;;;;;;;11.63;2.67;;;;;;;20.07;53.56;101289.38;16128380;19;130089;-57
2022/09/24 17:34:41;;;;;;;9.10;2.47;;;;;;;20.07;53.54;101292.16;16129620;19;130337;-50
2022/09/24 17:40:06;;;;;;;17.13;2.50;;;;;;;20.08;53.47;101292.97;16129875;19;129859;-52
2022/09/24 17:45:28;;;;;;;11.63;2.60;;;;;;;20.09;53.44;101292.75;16130318;19;129441;-50
2022/09/24 17:50:58;;;;;;;5.90;2.28;;;;;;;20.10;53.47;101301.91;16128553;19;130382;-48
2022/09/24 17:56:22;;;;;;;6.72;2.47;;;;;;;20.09;53.17;101317.75;16127847;19;129487;-53
2022/09/24 18:01:45;;;;;;;6.93;2.40;;;;;;;20.11;53.38;101320.28;16131751;19;129812;-53
2022/09/24 18:07:07;;;;;;;14.48;2.33;;;;;;;20.12;53.55;101324.75;16127692;19;129448;-54
2022/09/24 18:12:28;;;;;;;6.50;2.55;;;;;;;20.11;53.41;101334.16;16127366;19;129430;-50
2022/09/24 18:17:51;;;;;;;8.45;2.58;;;;;;;20.11;53.24;101340.56;16127499;19;130137;-52
2022/09/24 18:23:13;;;;;;;4.15;2.20;;;;;;;20.11;53.42;101345.28;16128461;19;129740;-50
2022/09/24 18:28:47;;;;;;;9.68;3.42;;;;;;;20.11;53.08;101353.59;16130221;19;129968;-51
2022/09/24 18:34:12;;;;;;;7.10;2.45;;;;;;;20.07;53.21;101367.16;16129332;19;130219;-51
2022/09/24 18:39:33;;;;;;;11.63;3.00;;;;;;;20.08;52.99;101367.97;16126719;19;129329;-53
2022/09/24 18:44:55;;;;;;;9.73;2.78;;;;;;;20.06;52.66;101375.72;16126386;19;130040;-50
2022/09/24 18:50:17;;;;;;;8.63;2.30;;;;;;;20.07;52.69;101380.16;16118938;19;130599;-52
2022/09/24 18:55:40;;;;;;;5.00;2.17;;;;;;;20.07;52.76;101383.81;16120195;19;129497;-50
2022/09/24 19:01:04;;;;;;;18.52;2.92;;;;;;;20.09;53.00;101387.19;16118712;19;129536;-49
2022/09/24 19:06:27;;;;;;;15.77;1.77;;;;;;;20.09;53.22;101384.41;16121811;19;130771;-50
2022/09/24 19:11:48;;;;;;;5.60;2.08;;;;;;;20.09;53.21;101387.19;16123890;19;129818;-50
2022/09/24 19:17:10;;;;;;;9.75;2.13;;;;;;;20.09;53.07;101398.31;16122957;19;134183;-54
2022/09/24 19:22:32;;;;;;;9.05;1.63;;;;;;;20.09;53.51;101391.88;16123482;19;130404;-51
2022/09/24 19:27:54;;;;;;;6.15;1.60;;;;;;;20.10;53.07;101410.25;16124486;19;129488;-52
2022/09/24 19:33:16;;;;;;;3.08;1.60;;;;;;;20.09;53.24;101409.41;16120849;19;131308;-54
2022/09/24 19:38:39;;;;;;;4.60;1.33;;;;;;;20.09;52.70;101419.66;16121707;19;130367;-52
2022/09/24 19:44:01;;;;;;;4.82;1.40;;;;;;;20.10;53.53;101427.78;16120744;19;129951;-54
2022/09/24 19:49:29;;;;;;;2.20;1.25;;;;;;;20.09;52.57;101425.22;16120194;19;129530;-51
2022/09/24 19:54:51;;;;;;;6.25;1.15;;;;;;;20.08;52.91;101434.63;16121733;19;130186;-51
2022/09/24 20:00:13;;;;;;;5.85;1.13;;;;;;;20.09;52.91;101441.88;16133202;19;130529;-53
2022/09/24 20:05:35;;;;;;;4.97;1.38;;;;;;;20.09;53.19;101436.31;16136500;19;130371;-52
2022/09/24 20:11:01;;;;;;;2.00;1.02;;;;;;;20.07;52.98;101427.38;16135270;19;130391;-56
2022/09/24 20:16:25;;;;;;;4.13;1.08;;;;;;;20.06;53.20;101439.63;16134475;19;131038;-53
2022/09/24 20:21:47;;;;;;;1.13;0.88;;;;;;;20.06;53.15;101436.84;16134955;19;130167;-52
2022/09/24 20:32:51;;;;;;;6.80;1.48;;;;;;;20.03;52.37;101445.66;16135271;19;129007;-59
2022/09/24 20:38:13;;;;;;;8.32;1.60;;;;;;;20.02;52.57;101443.97;16133856;19;129493;-55
2022/09/24 20:43:35;;;;;;;3.83;1.33;;;;;;;20.01;52.39;101450.59;16135080;19;129701;-50
2022/09/24 20:48:58;;;;;;;4.63;1.20;;;;;;;19.99;52.45;101460.00;16133319;19;129747;-47
2022/09/24 20:54:21;;;;;;;7.75;1.83;;;;;;;20.00;52.32;101455.28;16130357;19;130144;-50
2022/09/24 20:59:42;;;;;;;6.78;1.48;;;;;;;19.98;52.46;101452.72;16132487;19;129716;-52
2022/09/24 21:05:05;;;;;;;11.18;1.88;;;;;;;19.96;52.18;101454.91;16130002;19;129625;-51
2022/09/24 21:10:27;;;;;;;7.05;1.50;;;;;;;19.95;52.35;101453.22;16129709;19;129730;-49
2022/09/24 21:16:02;;;;;;;6.90;1.42;;;;;;;19.93;51.94;101452.63;16131023;19;129234;-50
2022/09/24 21:21:29;;;;;;;3.17;1.40;;;;;;;19.90;52.34;101455.88;16133056;19;130392;-49
2022/09/24 21:26:51;;;;;;;4.93;1.35;;;;;;;19.88;52.14;101454.44;16132248;19;129546;-47
2022/09/24 21:32:16;;;;;;;7.45;1.60;;;;;;;19.87;52.13;101459.16;16133263;19;129855;-50
2022/09/24 21:37:37;;;;;;;4.65;1.40;;;;;;;19.85;52.36;101464.09;16128440;19;130003;-46
2022/09/24 21:43:00;;;;;;;5.22;1.13;;;;;;;19.84;52.56;101462.41;16128741;19;129592;-52
2022/09/24 21:48:22;;;;;;;2.50;1.35;;;;;;;19.83;52.29;101471.81;16130937;19;130316;-51
2022/09/24 21:53:44;;;;;;;4.35;1.60;;;;;;;19.82;52.22;101473.75;16128636;19;129477;-49
2022/09/24 21:59:58;;;;;;;3.67;1.17;;;;;;;19.81;52.15;101471.22;16129159;19;129981;-53
2022/09/24 22:04:47;;;;;;;3.33;1.23;;;;;;;19.81;52.67;101477.63;16126344;19;129117;-53
2022/09/24 22:10:09;;;;;;;2.15;1.02;;;;;;;19.79;52.16;101478.94;16127863;19;130539;-48
2022/09/24 22:15:31;;;;;;;2.88;1.00;;;;;;;19.78;52.49;101474.47;16128012;19;131169;-48
2022/09/24 22:20:54;;;;;;;5.68;1.40;;;;;;;19.77;52.73;101468.06;16127895;19;129285;-50
2022/09/24 22:26:17;;;;;;;4.25;1.10;;;;;;;19.76;52.01;101473.88;16124989;19;130431;-48
2022/09/24 22:31:39;;;;;;;3.45;1.00;;;;;;;19.74;52.03;101464.94;16127113;19;130240;-47
2022/09/24 22:37:04;;;;;;;3.10;1.02;;;;;;;19.73;52.14;101461.31;16125618;19;130148;-50
2022/09/24 22:42:26;;;;;;;2.00;0.82;;;;;;;19.69;52.81;101469.25;16130690;19;129952;-48
2022/09/24 22:47:47;;;;;;;3.80;1.00;;;;;;;19.71;52.00;101473.72;16126442;19;130626;-50
2022/09/24 22:53:09;;;;;;;4.03;0.80;;;;;;;19.69;52.33;101465.66;16125581;19;129303;-49
2022/09/24 22:58:32;;;;;;;2.92;0.95;;;;;;;19.68;52.32;101475.06;16124804;19;129839;-48
2022/09/24 23:03:55;;;;;;;4.68;1.02;;;;;;;19.68;52.42;101469.50;16123064;19;129517;-53
2022/09/24 23:09:16;;;;;;;2.70;1.00;;;;;;;19.66;52.73;101472.53;16124333;19;129273;-51
2022/09/24 23:14:38;;;;;;;3.42;0.95;;;;;;;19.66;52.41;101468.91;16124256;19;129677;-49
2022/09/24 23:20:01;;;;;;;2.92;0.85;;;;;;;19.65;52.41;101470.84;16122190;19;129940;-49
2022/09/24 23:25:22;;;;;;;3.40;0.82;;;;;;;19.65;52.58;101475.53;16123712;19;129506;-49
2022/09/24 23:30:44;;;;;;;3.33;0.88;;;;;;;19.64;51.99;101468.28;16123395;19;129431;-50
2022/09/24 23:36:08;;;;;;;2.65;0.70;;;;;;;19.62;52.36;101468.53;16134010;19;131190;-53
2022/09/24 23:41:30;;;;;;;2.15;0.55;;;;;;;19.62;52.30;101470.50;16136279;19;130360;-53
2022/09/24 23:46:52;;;;;;;4.05;0.90;;;;;;;19.61;52.07;101469.63;16139131;19;129716;-52
2022/09/24 23:52:14;;;;;;;2.55;0.90;;;;;;;19.60;52.11;101472.66;16139884;19;129712;-48
2022/09/24 23:57:35;;;;;;;3.15;0.80;;;;;;;19.58;52.24;101470.09;16141028;19;131034;-52
